sensor_id;sensor_type;location;lat;lon;timestamp;pressure;altitude;pressure_sealevel;temperature;humidity
55187;BME280;55457;52.002;5.464;2024-01-10T00:02:13;102971.41;;;21.02;34.38
55187;BME280;55457;52.002;5.464;2024-01-10T00:04:38;102971.41;;;21.02;34.56
55187;BME280;55457;52.002;5.464;2024-01-10T00:07:04;102969.53;;;21.03;34.48
55187;BME280;55457;52.002;5.464;2024-01-10T00:09:31;102964.94;;;21.03;35.07
55187;BME280;55457;52.002;5.464;2024-01-10T00:11:56;102966.66;;;21.04;34.61
55187;BME280;55457;52.002;5.464;2024-01-10T00:14:22;102963.28;;;21.02;34.43
55187;BME280;55457;52.002;5.464;2024-01-10T00:16:47;102963.94;;;21.04;34.41
55187;BME280;55457;52.002;5.464;2024-01-10T00:19:13;102964.56;;;21.06;34.53
55187;BME280;55457;52.002;5.464;2024-01-10T00:21:38;102963.09;;;21.04;34.50
55187;BME280;55457;52.002;5.464;2024-01-10T00:24:04;102960.19;;;21.05;34.49
55187;BME280;55457;52.002;5.464;2024-01-10T00:26:29;102954.75;;;21.05;34.34
55187;BME280;55457;52.002;5.464;2024-01-10T00:28:55;102958.53;;;21.04;34.51
55187;BME280;55457;52.002;5.464;2024-01-10T00:31:20;102947.47;;;21.06;34.44
55187;BME280;55457;52.002;5.464;2024-01-10T00:33:45;102941.22;;;21.05;34.37
55187;BME280;55457;52.002;5.464;2024-01-10T00:36:11;102941.22;;;21.05;34.42
55187;BME280;55457;52.002;5.464;2024-01-10T00:38:36;102943.91;;;21.05;34.49
55187;BME280;55457;52.002;5.464;2024-01-10T00:41:02;102946.84;;;21.04;34.23
55187;BME280;55457;52.002;5.464;2024-01-10T00:43:28;102950.38;;;21.04;34.24
55187;BME280;55457;52.002;5.464;2024-01-10T00:45:53;102943.25;;;21.03;34.21
55187;BME280;55457;52.002;5.464;2024-01-10T00:48:18;102944.97;;;21.04;34.48
55187;BME280;55457;52.002;5.464;2024-01-10T00:50:44;102937.00;;;21.03;34.22
55187;BME280;55457;52.002;5.464;2024-01-10T00:53:09;102935.13;;;21.03;34.37
55187;BME280;55457;52.002;5.464;2024-01-10T00:55:35;102938.88;;;21.02;34.01
55187;BME280;55457;52.002;5.464;2024-01-10T00:58:00;102938.88;;;21.02;34.32
55187;BME280;55457;52.002;5.464;2024-01-10T01:00:25;102930.75;;;21.02;34.23
55187;BME280;55457;52.002;5.464;2024-01-10T01:02:51;102931.59;;;21.03;34.11
55187;BME280;55457;52.002;5.464;2024-01-10T01:05:17;102918.88;;;21.03;34.19
55187;BME280;55457;52.002;5.464;2024-01-10T01:07:42;102905.31;;;21.03;34.45
55187;BME280;55457;52.002;5.464;2024-01-10T01:10:08;102898.63;;;20.99;34.11
55187;BME280;55457;52.002;5.464;2024-01-10T01:12:37;102909.28;;;21.01;34.09
55187;BME280;55457;52.002;5.464;2024-01-10T01:15:03;102910.09;;;21.01;34.05
55187;BME280;55457;52.002;5.464;2024-01-10T01:17:28;102910.09;;;21.01;33.97
55187;BME280;55457;52.002;5.464;2024-01-10T01:19:54;102910.09;;;21.01;34.39
55187;BME280;55457;52.002;5.464;2024-01-10T01:22:19;102900.69;;;20.97;33.91
55187;BME280;55457;52.002;5.464;2024-01-10T01:24:44;102909.28;;;21.01;34.26
55187;BME280;55457;52.002;5.464;2024-01-10T01:27:10;102909.28;;;21.01;34.18
55187;BME280;55457;52.002;5.464;2024-01-10T01:29:35;102904.06;;;20.99;34.24
55187;BME280;55457;52.002;5.464;2024-01-10T01:32:00;102904.69;;;21.01;34.32
55187;BME280;55457;52.002;5.464;2024-01-10T01:34:26;102912.81;;;21.01;34.18
55187;BME280;55457;52.002;5.464;2024-01-10T01:36:51;102903.63;;;21.02;34.32
55187;BME280;55457;52.002;5.464;2024-01-10T01:39:17;102907.41;;;21.01;33.93
55187;BME280;55457;52.002;5.464;2024-01-10T01:41:43;102904.69;;;21.01;34.33
55187;BME280;55457;52.002;5.464;2024-01-10T01:44:08;102905.53;;;21.02;34.11
55187;BME280;55457;52.002;5.464;2024-01-10T01:46:34;102905.31;;;21.03;33.85
55187;BME280;55457;52.002;5.464;2024-01-10T01:48:59;102895.91;;;20.99;33.98
55187;BME280;55457;52.002;5.464;2024-01-10T01:51:26;102906.34;;;21.02;34.19
55187;BME280;55457;52.002;5.464;2024-01-10T01:53:52;102908.22;;;21.02;34.16
55187;BME280;55457;52.002;5.464;2024-01-10T01:56:18;102909.06;;;21.02;34.01
55187;BME280;55457;52.002;5.464;2024-01-10T01:58:45;102896.53;;;21.01;33.82
55187;BME280;55457;52.002;5.464;2024-01-10T02:01:11;102894.88;;;21.00;33.97
55187;BME280;55457;52.002;5.464;2024-01-10T02:03:37;102887.38;;;21.02;33.91
55187;BME280;55457;52.002;5.464;2024-01-10T02:06:03;102897.38;;;21.02;34.19
55187;BME280;55457;52.002;5.464;2024-01-10T02:08:37;102891.97;;;21.02;34.06
55187;BME280;55457;52.002;5.464;2024-01-10T02:11:03;102890.69;;;20.98;33.91
55187;BME280;55457;52.002;5.464;2024-01-10T02:13:29;102895.50;;;21.02;34.17
55187;BME280;55457;52.002;5.464;2024-01-10T02:15:56;102896.53;;;21.01;34.13
55187;BME280;55457;52.002;5.464;2024-01-10T02:18:21;102893.84;;;21.01;34.08
55187;BME280;55457;52.002;5.464;2024-01-10T02:20:47;102895.50;;;21.02;33.92
55187;BME280;55457;52.002;5.464;2024-01-10T02:23:12;102894.88;;;21.00;33.93
55187;BME280;55457;52.002;5.464;2024-01-10T02:25:39;102879.00;;;20.97;33.94
55187;BME280;55457;52.002;5.464;2024-01-10T02:28:05;102889.47;;;21.00;34.21
55187;BME280;55457;52.002;5.464;2024-01-10T02:30:30;102884.03;;;21.00;34.09
55187;BME280;55457;52.002;5.464;2024-01-10T02:32:56;102883.19;;;21.00;33.89
55187;BME280;55457;52.002;5.464;2024-01-10T02:35:21;102883.19;;;21.00;34.12
55187;BME280;55457;52.002;5.464;2024-01-10T02:37:46;102885.06;;;20.99;34.00
55187;BME280;55457;52.002;5.464;2024-01-10T02:40:12;102879.84;;;20.98;34.17
55187;BME280;55457;52.002;5.464;2024-01-10T02:42:37;102881.53;;;20.99;34.13
55187;BME280;55457;52.002;5.464;2024-01-10T02:45:04;102874.41;;;20.98;34.05
55187;BME280;55457;52.002;5.464;2024-01-10T02:47:29;102887.78;;;20.99;33.90
55187;BME280;55457;52.002;5.464;2024-01-10T02:49:54;102876.28;;;20.97;34.03
55187;BME280;55457;52.002;5.464;2024-01-10T02:52:20;102879.00;;;20.97;33.84
55187;BME280;55457;52.002;5.464;2024-01-10T02:54:45;102875.25;;;20.98;34.06
55187;BME280;55457;52.002;5.464;2024-01-10T02:57:11;102873.56;;;20.97;34.13
55187;BME280;55457;52.002;5.464;2024-01-10T02:59:37;102875.25;;;20.98;33.83
55187;BME280;55457;52.002;5.464;2024-01-10T03:02:02;102873.56;;;20.97;33.87
55187;BME280;55457;52.002;5.464;2024-01-10T03:04:27;102874.41;;;20.98;34.01
55187;BME280;55457;52.002;5.464;2024-01-10T03:06:53;102868.16;;;20.97;34.03
55187;BME280;55457;52.002;5.464;2024-01-10T03:09:18;102877.97;;;20.98;34.06
55187;BME280;55457;52.002;5.464;2024-01-10T03:11:43;102871.53;;;20.99;33.87
55187;BME280;55457;52.002;5.464;2024-01-10T03:14:10;102869.81;;;20.98;33.99
55187;BME280;55457;52.002;5.464;2024-01-10T03:16:36;102872.53;;;20.98;34.05
55187;BME280;55457;52.002;5.464;2024-01-10T03:19:02;102866.50;;;20.96;34.18
55187;BME280;55457;52.002;5.464;2024-01-10T03:21:27;102861.69;;;20.98;33.93
55187;BME280;55457;52.002;5.464;2024-01-10T03:23:57;102861.69;;;20.98;33.92
55187;BME280;55457;52.002;5.464;2024-01-10T03:26:23;102871.53;;;20.99;33.91
55187;BME280;55457;52.002;5.464;2024-01-10T03:28:48;102868.56;;;20.94;34.02
55187;BME280;55457;52.002;5.464;2024-01-10T03:31:14;102858.34;;;20.96;34.11
55187;BME280;55457;52.002;5.464;2024-01-10T03:33:40;102865.44;;;20.97;34.07
55187;BME280;55457;52.002;5.464;2024-01-10T03:36:07;102855.66;;;20.96;34.26
55187;BME280;55457;52.002;5.464;2024-01-10T03:38:34;102858.16;;;20.98;34.05
55187;BME280;55457;52.002;5.464;2024-01-10T03:40:59;102862.75;;;20.97;34.13
55187;BME280;55457;52.002;5.464;2024-01-10T03:43:24;102853.78;;;20.97;34.12
55187;BME280;55457;52.002;5.464;2024-01-10T03:45:49;102849.38;;;20.96;33.88
55187;BME280;55457;52.002;5.464;2024-01-10T03:48:15;102848.56;;;20.95;33.91
55187;BME280;55457;52.002;5.464;2024-01-10T03:50:40;102848.56;;;20.95;34.35
55187;BME280;55457;52.002;5.464;2024-01-10T03:53:05;102851.28;;;20.95;33.92
55187;BME280;55457;52.002;5.464;2024-01-10T03:55:31;102843.13;;;20.95;34.06
55187;BME280;55457;52.002;5.464;2024-01-10T03:57:56;102831.47;;;20.95;33.59
55187;BME280;55457;52.002;5.464;2024-01-10T04:00:22;102843.13;;;20.95;33.93
55187;BME280;55457;52.002;5.464;2024-01-10T04:02:47;102829.78;;;20.94;33.92
55187;BME280;55457;52.002;5.464;2024-01-10T04:05:12;102827.91;;;20.94;34.04
55187;BME280;55457;52.002;5.464;2024-01-10T04:07:41;102823.50;;;20.93;33.95
55187;BME280;55457;52.002;5.464;2024-01-10T04:10:09;102824.75;;;20.91;34.07
55187;BME280;55457;52.002;5.464;2024-01-10T04:12:36;102828.09;;;20.93;34.13
55187;BME280;55457;52.002;5.464;2024-01-10T04:15:02;102824.56;;;20.92;33.92
55187;BME280;55457;52.002;5.464;2024-01-10T04:17:28;102823.50;;;20.93;34.02
55187;BME280;55457;52.002;5.464;2024-01-10T04:19:53;102814.53;;;20.93;34.15
55187;BME280;55457;52.002;5.464;2024-01-10T04:22:18;102814.75;;;20.91;34.30
55187;BME280;55457;52.002;5.464;2024-01-10T04:24:44;102809.75;;;20.88;33.91
55187;BME280;55457;52.002;5.464;2024-01-10T04:27:09;102816.84;;;20.89;33.89
55187;BME280;55457;52.002;5.464;2024-01-10T04:29:34;102816.84;;;20.89;34.02
55187;BME280;55457;52.002;5.464;2024-01-10T04:32:00;102816.00;;;20.89;34.01
55187;BME280;55457;52.002;5.464;2024-01-10T04:34:25;102815.16;;;20.88;34.15
55187;BME280;55457;52.002;5.464;2024-01-10T04:36:51;102817.66;;;20.90;34.11
55187;BME280;55457;52.002;5.464;2024-01-10T04:39:16;102818.88;;;20.87;33.92
55187;BME280;55457;52.002;5.464;2024-01-10T04:41:41;102813.47;;;20.87;33.83
55187;BME280;55457;52.002;5.464;2024-01-10T04:44:06;102813.47;;;20.87;34.22
55187;BME280;55457;52.002;5.464;2024-01-10T04:46:32;102807.44;;;20.85;33.85
55187;BME280;55457;52.002;5.464;2024-01-10T04:48:58;102800.97;;;20.86;34.20
55187;BME280;55457;52.002;5.464;2024-01-10T04:51:24;102803.66;;;20.86;34.06
55187;BME280;55457;52.002;5.464;2024-01-10T04:53:49;102808.06;;;20.87;34.04
55187;BME280;55457;52.002;5.464;2024-01-10T04:56:14;102807.22;;;20.87;34.12
55187;BME280;55457;52.002;5.464;2024-01-10T04:58:40;102805.34;;;20.87;33.75
55187;BME280;55457;52.002;5.464;2024-01-10T05:01:05;102796.38;;;20.87;33.78
55187;BME280;55457;52.002;5.464;2024-01-10T05:03:31;102800.97;;;20.86;34.02
55187;BME280;55457;52.002;5.464;2024-01-10T05:05:56;102801.78;;;20.87;34.06
55187;BME280;55457;52.002;5.464;2024-01-10T05:08:21;102798.91;;;20.88;33.81
55187;BME280;55457;52.002;5.464;2024-01-10T05:10:47;102804.31;;;20.88;34.17
55187;BME280;55457;52.002;5.464;2024-01-10T05:13:12;102812.47;;;20.88;33.95
55187;BME280;55457;52.002;5.464;2024-01-10T05:15:38;102812.25;;;20.90;34.04
55187;BME280;55457;52.002;5.464;2024-01-10T05:18:03;102814.75;;;20.91;34.08
55187;BME280;55457;52.002;5.464;2024-01-10T05:20:29;102807.66;;;20.90;34.08
55187;BME280;55457;52.002;5.464;2024-01-10T05:22:54;102813.72;;;20.92;34.06
55187;BME280;55457;52.002;5.464;2024-01-10T05:25:23;102801.00;;;20.93;33.83
55187;BME280;55457;52.002;5.464;2024-01-10T05:27:49;102799.13;;;20.93;34.03
55187;BME280;55457;52.002;5.464;2024-01-10T05:30:14;102790.97;;;20.93;33.99
55187;BME280;55457;52.002;5.464;2024-01-10T05:32:39;102794.56;;;20.94;33.88
55187;BME280;55457;52.002;5.464;2024-01-10T05:35:06;102802.69;;;20.94;33.82
55187;BME280;55457;52.002;5.464;2024-01-10T05:37:31;102798.09;;;20.94;33.94
55187;BME280;55457;52.002;5.464;2024-01-10T05:39:56;102804.34;;;20.95;33.77
55187;BME280;55457;52.002;5.464;2024-01-10T05:42:22;102803.53;;;20.94;33.77
55187;BME280;55457;52.002;5.464;2024-01-10T05:44:47;102798.94;;;20.95;33.67
55187;BME280;55457;52.002;5.464;2024-01-10T05:47:12;102805.19;;;20.95;33.91
55187;BME280;55457;52.002;5.464;2024-01-10T05:49:38;102810.59;;;20.95;33.87
55187;BME280;55457;52.002;5.464;2024-01-10T05:52:04;102802.47;;;20.95;33.80
55187;BME280;55457;52.002;5.464;2024-01-10T05:54:29;102810.59;;;20.95;34.01
55187;BME280;55457;52.002;5.464;2024-01-10T05:56:54;102808.72;;;20.96;33.88
55187;BME280;55457;52.002;5.464;2024-01-10T05:59:20;102802.47;;;20.95;33.64
55187;BME280;55457;52.002;5.464;2024-01-10T06:01:45;102805.19;;;20.95;33.79
55187;BME280;55457;52.002;5.464;2024-01-10T06:04:10;102814.38;;;20.94;33.71
55187;BME280;55457;52.002;5.464;2024-01-10T06:06:35;102817.69;;;20.96;33.80
55187;BME280;55457;52.002;5.464;2024-01-10T06:09:01;102807.25;;;20.93;33.91
55187;BME280;55457;52.002;5.464;2024-01-10T06:11:26;102808.94;;;20.94;33.63
55187;BME280;55457;52.002;5.464;2024-01-10T06:13:52;102814.38;;;20.94;33.72
55187;BME280;55457;52.002;5.464;2024-01-10T06:16:18;102814.38;;;20.94;33.51
55187;BME280;55457;52.002;5.464;2024-01-10T06:18:43;102802.88;;;20.92;33.59
55187;BME280;55457;52.002;5.464;2024-01-10T06:21:08;102801.81;;;20.93;33.71
55187;BME280;55457;52.002;5.464;2024-01-10T06:23:34;102801.81;;;20.93;33.58
55187;BME280;55457;52.002;5.464;2024-01-10T06:25:59;102793.06;;;20.91;33.76
55187;BME280;55457;52.002;5.464;2024-01-10T06:28:24;102793.69;;;20.93;33.56
55187;BME280;55457;52.002;5.464;2024-01-10T06:30:50;102790.97;;;20.93;33.49
55187;BME280;55457;52.002;5.464;2024-01-10T06:33:15;102793.06;;;20.91;33.72
55187;BME280;55457;52.002;5.464;2024-01-10T06:35:41;102795.56;;;20.93;33.74
55187;BME280;55457;52.002;5.464;2024-01-10T06:38:09;102793.06;;;20.91;33.68
55187;BME280;55457;52.002;5.464;2024-01-10T06:40:35;102790.34;;;20.91;33.63
55187;BME280;55457;52.002;5.464;2024-01-10T06:43:02;102796.00;;;20.90;33.56
55187;BME280;55457;52.002;5.464;2024-01-10T06:45:27;102785.56;;;20.93;33.72
55187;BME280;55457;52.002;5.464;2024-01-10T06:47:52;102780.56;;;20.90;33.62
55187;BME280;55457;52.002;5.464;2024-01-10T06:50:18;102779.50;;;20.91;33.72
55187;BME280;55457;52.002;5.464;2024-01-10T06:52:45;102789.72;;;20.89;33.64
55187;BME280;55457;52.002;5.464;2024-01-10T06:55:10;102791.41;;;20.90;33.62
55187;BME280;55457;52.002;5.464;2024-01-10T06:57:36;102797.88;;;20.89;33.70
55187;BME280;55457;52.002;5.464;2024-01-10T07:00:01;102789.72;;;20.89;33.56
55187;BME280;55457;52.002;5.464;2024-01-10T07:02:31;102785.97;;;20.90;33.62
55187;BME280;55457;52.002;5.464;2024-01-10T07:04:57;102781.59;;;20.89;33.90
55187;BME280;55457;52.002;5.464;2024-01-10T07:07:22;102795.16;;;20.89;33.69
55187;BME280;55457;52.002;5.464;2024-01-10T07:09:48;102807.66;;;20.90;33.99
55187;BME280;55457;52.002;5.464;2024-01-10T07:12:13;102799.53;;;20.90;33.87
55187;BME280;55457;52.002;5.464;2024-01-10T07:14:39;102786.81;;;20.91;33.69
55187;BME280;55457;52.002;5.464;2024-01-10T07:17:04;102793.06;;;20.91;34.18
55187;BME280;55457;52.002;5.464;2024-01-10T07:19:29;102788.47;;;20.92;34.27
55187;BME280;55457;52.002;5.464;2024-01-10T07:21:56;102795.16;;;20.89;34.09
55187;BME280;55457;52.002;5.464;2024-01-10T07:24:21;102792.63;;;20.88;33.90
55187;BME280;55457;52.002;5.464;2024-01-10T07:26:47;102798.47;;;20.84;34.33
55187;BME280;55457;52.002;5.464;2024-01-10T07:29:12;102803.44;;;20.81;34.87
55187;BME280;55457;52.002;5.464;2024-01-10T07:31:38;102804.09;;;20.83;35.13
55187;BME280;55457;52.002;5.464;2024-01-10T07:34:04;102796.97;;;20.82;34.95
55187;BME280;55457;52.002;5.464;2024-01-10T07:36:41;102799.69;;;20.82;35.44
55187;BME280;55457;52.002;5.464;2024-01-10T07:39:07;102813.22;;;20.82;35.16
55187;BME280;55457;52.002;5.464;2024-01-10T07:41:33;102824.06;;;20.82;35.36
55187;BME280;55457;52.002;5.464;2024-01-10T07:43:58;102824.91;;;20.82;35.62
55187;BME280;55457;52.002;5.464;2024-01-10T07:46:23;102825.94;;;20.81;35.49
55187;BME280;55457;52.002;5.464;2024-01-10T07:48:48;102832.19;;;20.82;35.77
55187;BME280;55457;52.002;5.464;2024-01-10T07:51:14;102832.19;;;20.82;35.64
55187;BME280;55457;52.002;5.464;2024-01-10T07:53:39;102827.59;;;20.82;35.91
55187;BME280;55457;52.002;5.464;2024-01-10T07:56:05;102830.53;;;20.81;35.74
55187;BME280;55457;52.002;5.464;2024-01-10T07:58:30;102831.38;;;20.81;35.95
55187;BME280;55457;52.002;5.464;2024-01-10T08:00:56;102826.78;;;20.82;35.78
55187;BME280;55457;52.002;5.464;2024-01-10T08:03:21;102827.81;;;20.81;35.97
55187;BME280;55457;52.002;5.464;2024-01-10T08:05:46;102830.53;;;20.81;35.88
55187;BME280;55457;52.002;5.464;2024-01-10T08:08:12;102833.44;;;20.79;35.72
55187;BME280;55457;52.002;5.464;2024-01-10T08:10:38;102834.91;;;20.82;35.89
55187;BME280;55457;52.002;5.464;2024-01-10T08:13:05;102828.66;;;20.81;35.95
55187;BME280;55457;52.002;5.464;2024-01-10T08:15:30;102832.41;;;20.80;35.95
55187;BME280;55457;52.002;5.464;2024-01-10T08:17:56;102830.53;;;20.81;35.53
55187;BME280;55457;52.002;5.464;2024-01-10T08:20:22;102830.53;;;20.81;35.70
55187;BME280;55457;52.002;5.464;2024-01-10T08:22:47;102820.09;;;20.78;35.75
55187;BME280;55457;52.002;5.464;2024-01-10T08:25:13;102814.47;;;20.79;35.61
55187;BME280;55457;52.002;5.464;2024-01-10T08:27:40;102822.59;;;20.79;35.77
55187;BME280;55457;52.002;5.464;2024-01-10T08:30:06;102823.44;;;20.80;35.58
55187;BME280;55457;52.002;5.464;2024-01-10T08:32:34;102821.78;;;20.79;35.73
55187;BME280;55457;52.002;5.464;2024-01-10T08:35:00;102820.09;;;20.78;35.75
55187;BME280;55457;52.002;5.464;2024-01-10T08:37:25;102816.13;;;20.74;34.43
55187;BME280;55457;52.002;5.464;2024-01-10T08:39:51;102821.91;;;20.71;34.65
55187;BME280;55457;52.002;5.464;2024-01-10T08:42:16;102818.97;;;20.66;35.04
55187;BME280;55457;52.002;5.464;2024-01-10T08:44:41;102812.25;;;20.62;35.35
55187;BME280;55457;52.002;5.464;2024-01-10T08:47:07;102807.88;;;20.61;35.33
55187;BME280;55457;52.002;5.464;2024-01-10T08:49:32;102811.63;;;20.59;35.30
55187;BME280;55457;52.002;5.464;2024-01-10T08:51:58;102813.28;;;20.61;35.50
55187;BME280;55457;52.002;5.464;2024-01-10T08:54:23;102819.53;;;20.61;35.37
55187;BME280;55457;52.002;5.464;2024-01-10T08:56:49;102812.66;;;20.58;35.52
55187;BME280;55457;52.002;5.464;2024-01-10T08:59:15;102808.91;;;20.59;35.86
55187;BME280;55457;52.002;5.464;2024-01-10T09:01:40;102814.13;;;20.61;35.74
55187;BME280;55457;52.002;5.464;2024-01-10T09:04:05;102831.66;;;20.65;35.88
55187;BME280;55457;52.002;5.464;2024-01-10T09:06:32;102828.59;;;20.68;35.86
55187;BME280;55457;52.002;5.464;2024-01-10T09:08:57;102822.56;;;20.73;35.71
55187;BME280;55457;52.002;5.464;2024-01-10T09:11:23;102817.56;;;20.76;35.74
55187;BME280;55457;52.002;5.464;2024-01-10T09:13:49;102820.72;;;20.80;35.71
55187;BME280;55457;52.002;5.464;2024-01-10T09:16:15;102805.31;;;20.80;35.51
55187;BME280;55457;52.002;5.464;2024-01-10T09:18:40;102811.19;;;20.84;35.46
55187;BME280;55457;52.002;5.464;2024-01-10T09:21:06;102807.22;;;20.87;35.42
55187;BME280;55457;52.002;5.464;2024-01-10T09:23:31;102811.41;;;20.89;35.56
55187;BME280;55457;52.002;5.464;2024-01-10T09:25:56;102804.13;;;20.90;35.46
55187;BME280;55457;52.002;5.464;2024-01-10T09:28:22;102809.34;;;20.91;35.36
55187;BME280;55457;52.002;5.464;2024-01-10T09:30:47;102809.34;;;20.91;35.28
55187;BME280;55457;52.002;5.464;2024-01-10T09:33:12;102808.94;;;20.94;34.94
55187;BME280;55457;52.002;5.464;2024-01-10T09:35:38;102801.44;;;20.96;35.27
55187;BME280;55457;52.002;5.464;2024-01-10T09:38:03;102802.47;;;20.95;35.25
55187;BME280;55457;52.002;5.464;2024-01-10T09:40:29;102800.59;;;20.96;35.16
55187;BME280;55457;52.002;5.464;2024-01-10T09:42:54;102803.09;;;20.97;35.17
55187;BME280;55457;52.002;5.464;2024-01-10T09:45:21;102803.94;;;20.98;35.20
55187;BME280;55457;52.002;5.464;2024-01-10T09:47:52;102807.47;;;20.98;35.16
55187;BME280;55457;52.002;5.464;2024-01-10T09:50:19;102811.69;;;21.01;35.40
55187;BME280;55457;52.002;5.464;2024-01-10T09:52:51;102806.06;;;21.02;35.35
55187;BME280;55457;52.002;5.464;2024-01-10T09:55:21;102808.38;;;21.05;35.28
55187;BME280;55457;52.002;5.464;2024-01-10T09:57:46;102811.72;;;21.07;35.32
55187;BME280;55457;52.002;5.464;2024-01-10T10:00:13;102801.69;;;21.08;35.21
55187;BME280;55457;52.002;5.464;2024-01-10T10:02:41;102805.25;;;21.08;34.88
55187;BME280;55457;52.002;5.464;2024-01-10T10:05:13;102810.50;;;21.10;34.89
55187;BME280;55457;52.002;5.464;2024-01-10T10:10:10;102806.09;;;21.09;35.10
55187;BME280;55457;52.002;5.464;2024-01-10T10:12:45;102796.94;;;21.10;35.01
55187;BME280;55457;52.002;5.464;2024-01-10T10:15:17;102797.75;;;21.10;35.03
55187;BME280;55457;52.002;5.464;2024-01-10T10:17:45;102798.59;;;21.11;35.22
55187;BME280;55457;52.002;5.464;2024-01-10T10:20:24;102797.34;;;21.14;35.14
55187;BME280;55457;52.002;5.464;2024-01-10T10:25:38;102803.59;;;21.14;35.09
55187;BME280;55457;52.002;5.464;2024-01-10T10:28:08;102794.44;;;21.15;35.19
55187;BME280;55457;52.002;5.464;2024-01-10T10:30:34;102799.03;;;21.15;34.99
55187;BME280;55457;52.002;5.464;2024-01-10T10:33:02;102801.75;;;21.15;34.99
55187;BME280;55457;52.002;5.464;2024-01-10T10:35:28;102802.16;;;21.11;34.68
55187;BME280;55457;52.002;5.464;2024-01-10T10:37:53;102794.41;;;21.08;34.49
55187;BME280;55457;52.002;5.464;2024-01-10T10:40:23;102795.66;;;21.06;34.75
55187;BME280;55457;52.002;5.464;2024-01-10T10:42:55;102796.03;;;21.03;34.93
55187;BME280;55457;52.002;5.464;2024-01-10T10:45:20;102796.47;;;21.00;34.77
55187;BME280;55457;52.002;5.464;2024-01-10T10:47:59;102788.50;;;20.98;34.60
55187;BME280;55457;52.002;5.464;2024-01-10T10:50:28;102788.50;;;20.98;34.88
55187;BME280;55457;52.002;5.464;2024-01-10T10:52:54;102783.09;;;20.98;34.65
55187;BME280;55457;52.002;5.464;2024-01-10T10:55:20;102786.00;;;20.97;34.10
55187;BME280;55457;52.002;5.464;2024-01-10T10:57:47;102787.25;;;20.94;34.07
55187;BME280;55457;52.002;5.464;2024-01-10T11:00:14;102784.94;;;20.91;34.51
55187;BME280;55457;52.002;5.464;2024-01-10T11:02:44;102786.19;;;20.89;34.33
55187;BME280;55457;52.002;5.464;2024-01-10T11:05:09;102786.38;;;20.87;34.58
55187;BME280;55457;52.002;5.464;2024-01-10T11:07:39;102798.91;;;20.88;34.26
55187;BME280;55457;52.002;5.464;2024-01-10T11:10:09;102784.31;;;20.89;34.48
55187;BME280;55457;52.002;5.464;2024-01-10T11:21:21;102787.28;;;21.01;34.60
55187;BME280;55457;52.002;5.464;2024-01-10T11:23:52;102791.44;;;21.03;34.62
55187;BME280;55457;52.002;5.464;2024-01-10T11:26:19;102781.88;;;21.07;34.33
55187;BME280;55457;52.002;5.464;2024-01-10T11:28:45;102771.03;;;21.07;34.57
55187;BME280;55457;52.002;5.464;2024-01-10T11:31:13;102786.50;;;21.14;34.44
55187;BME280;55457;52.002;5.464;2024-01-10T11:33:40;102771.06;;;21.14;34.51
55187;BME280;55457;52.002;5.464;2024-01-10T11:36:20;102771.50;;;21.18;34.58
55187;BME280;55457;52.002;5.464;2024-01-10T11:41:25;102768.41;;;21.21;34.33
55187;BME280;55457;52.002;5.464;2024-01-10T11:46:35;102770.69;;;21.24;34.22
55187;BME280;55457;52.002;5.464;2024-01-10T11:49:02;102768.63;;;21.26;34.22
55187;BME280;55457;52.002;5.464;2024-01-10T11:51:29;102764.88;;;21.27;34.27
55187;BME280;55457;52.002;5.464;2024-01-10T11:53:54;102762.78;;;21.29;34.48
55187;BME280;55457;52.002;5.464;2024-01-10T11:56:22;102759.09;;;21.30;34.41
55187;BME280;55457;52.002;5.464;2024-01-10T12:01:35;102762.41;;;21.32;34.38
55187;BME280;55457;52.002;5.464;2024-01-10T12:04:02;102757.81;;;21.32;34.15
55187;BME280;55457;52.002;5.464;2024-01-10T12:06:29;102758.66;;;21.33;34.18
55187;BME280;55457;52.002;5.464;2024-01-10T12:08:54;102768.47;;;21.34;33.44
55187;BME280;55457;52.002;5.464;2024-01-10T12:11:19;102760.75;;;21.31;33.93
55187;BME280;55457;52.002;5.464;2024-01-10T12:13:45;102749.06;;;21.30;34.18
55187;BME280;55457;52.002;5.464;2024-01-10T12:16:12;102747.34;;;21.29;34.07
55187;BME280;55457;52.002;5.464;2024-01-10T12:18:38;102746.38;;;21.30;34.30
55187;BME280;55457;52.002;5.464;2024-01-10T12:21:03;102747.81;;;21.33;34.50
55187;BME280;55457;52.002;5.464;2024-01-10T12:23:30;102743.44;;;21.39;34.63
55187;BME280;55457;52.002;5.464;2024-01-10T12:26:07;102740.75;;;21.45;34.66
55187;BME280;55457;52.002;5.464;2024-01-10T12:28:35;102732.66;;;21.52;34.55
55187;BME280;55457;52.002;5.464;2024-01-10T12:31:00;102741.41;;;21.60;34.30
55187;BME280;55457;52.002;5.464;2024-01-10T12:33:26;102735.59;;;21.70;34.33
55187;BME280;55457;52.002;5.464;2024-01-10T12:36:08;102729.75;;;21.80;34.55
55187;BME280;55457;52.002;5.464;2024-01-10T12:38:34;102730.19;;;21.90;34.11
55187;BME280;55457;52.002;5.464;2024-01-10T12:41:00;102733.31;;;22.00;33.80
55187;BME280;55457;52.002;5.464;2024-01-10T12:43:26;102733.13;;;22.08;32.67
55187;BME280;55457;52.002;5.464;2024-01-10T12:46:07;102735.84;;;22.15;32.54
55187;BME280;55457;52.002;5.464;2024-01-10T12:48:37;102733.13;;;22.22;33.04
55187;BME280;55457;52.002;5.464;2024-01-10T12:51:04;102737.91;;;22.33;33.29
55187;BME280;55457;52.002;5.464;2024-01-10T12:53:41;102728.91;;;22.39;33.40
55187;BME280;55457;52.002;5.464;2024-01-10T12:56:07;102723.03;;;22.49;33.18
55187;BME280;55457;52.002;5.464;2024-01-10T12:58:35;102730.16;;;22.56;33.12
55187;BME280;55457;52.002;5.464;2024-01-10T13:01:02;102725.50;;;22.63;33.61
55187;BME280;55457;52.002;5.464;2024-01-10T13:03:28;102721.31;;;22.67;33.27
55187;BME280;55457;52.002;5.464;2024-01-10T13:05:54;102724.03;;;22.74;33.11
55187;BME280;55457;52.002;5.464;2024-01-10T13:08:19;102734.25;;;22.79;33.00